sensor_id;sensor_type;location;lat;lon;timestamp;temperature;humidity
67603;DHT22;54417;47.454;18.918;2023-04-01T00:02:24;8.10;91.50
67603;DHT22;54417;47.454;18.918;2023-04-01T00:07:50;8.06;91.72
67603;DHT22;54417;47.454;18.918;2023-04-01T00:13:14;7.99;92.21
67603;DHT22;54417;47.454;18.918;2023-04-01T00:18:38;7.99;92.12
67603;DHT22;54417;47.454;18.918;2023-04-01T00:24:04;8.00;92.40
67603;DHT22;54417;47.454;18.918;2023-04-01T00:29:28;8.07;92.15
67603;DHT22;54417;47.454;18.918;2023-04-01T00:34:53;8.04;92.17
67603;DHT22;54417;47.454;18.918;2023-04-01T00:40:25;8.02;92.15
67603;DHT22;54417;47.454;18.918;2023-04-01T00:45:50;7.93;92.57
67603;DHT22;54417;47.454;18.918;2023-04-01T00:51:16;7.92;92.82
67603;DHT22;54417;47.454;18.918;2023-04-01T00:56:45;7.92;92.77
67603;DHT22;54417;47.454;18.918;2023-04-01T01:02:13;7.92;92.63
67603;DHT22;54417;47.454;18.918;2023-04-01T01:07:42;7.89;92.85
67603;DHT22;54417;47.454;18.918;2023-04-01T01:13:16;7.89;93.01
67603;DHT22;54417;47.454;18.918;2023-04-01T01:18:42;7.87;92.80
67603;DHT22;54417;47.454;18.918;2023-04-01T01:24:28;7.89;92.82
67603;DHT22;54417;47.454;18.918;2023-04-01T01:36:01;7.73;92.59
67603;DHT22;54417;47.454;18.918;2023-04-01T01:41:27;7.66;92.60
67603;DHT22;54417;47.454;18.918;2023-04-01T01:46:52;7.63;92.69
67603;DHT22;54417;47.454;18.918;2023-04-01T01:52:17;7.68;92.55
67603;DHT22;54417;47.454;18.918;2023-04-01T01:57:44;7.75;92.56
67603;DHT22;54417;47.454;18.918;2023-04-01T02:03:12;7.79;92.47
67603;DHT22;54417;47.454;18.918;2023-04-01T02:08:41;7.79;92.33
67603;DHT22;54417;47.454;18.918;2023-04-01T02:14:08;7.79;92.34
67603;DHT22;54417;47.454;18.918;2023-04-01T02:19:37;7.81;92.24
67603;DHT22;54417;47.454;18.918;2023-04-01T02:25:07;7.73;92.09
67603;DHT22;54417;47.454;18.918;2023-04-01T02:30:33;7.65;91.79
67603;DHT22;54417;47.454;18.918;2023-04-01T02:35:57;7.47;91.74
67603;DHT22;54417;47.454;18.918;2023-04-01T02:41:22;7.32;91.69
67603;DHT22;54417;47.454;18.918;2023-04-01T02:46:47;7.24;91.72
67603;DHT22;54417;47.454;18.918;2023-04-01T02:52:11;7.17;91.93
67603;DHT22;54417;47.454;18.918;2023-04-01T02:57:36;7.21;92.31
67603;DHT22;54417;47.454;18.918;2023-04-01T03:02:59;7.17;92.93
67603;DHT22;54417;47.454;18.918;2023-04-01T03:08:25;7.13;93.35
67603;DHT22;54417;47.454;18.918;2023-04-01T03:13:50;7.07;93.76
67603;DHT22;54417;47.454;18.918;2023-04-01T03:19:14;6.85;93.14
67603;DHT22;54417;47.454;18.918;2023-04-01T03:24:38;6.72;93.46
67603;DHT22;54417;47.454;18.918;2023-04-01T03:30:05;6.68;93.21
67603;DHT22;54417;47.454;18.918;2023-04-01T03:35:35;6.50;92.69
67603;DHT22;54417;47.454;18.918;2023-04-01T03:41:00;6.38;92.50
67603;DHT22;54417;47.454;18.918;2023-04-01T03:46:27;6.17;92.50
67603;DHT22;54417;47.454;18.918;2023-04-01T03:51:51;6.04;93.39
67603;DHT22;54417;47.454;18.918;2023-04-01T03:57:15;6.04;93.12
67603;DHT22;54417;47.454;18.918;2023-04-01T04:02:40;5.87;93.16
67603;DHT22;54417;47.454;18.918;2023-04-01T04:08:08;5.79;93.91
67603;DHT22;54417;47.454;18.918;2023-04-01T04:13:32;5.74;93.41
67603;DHT22;54417;47.454;18.918;2023-04-01T04:18:58;5.67;93.59
67603;DHT22;54417;47.454;18.918;2023-04-01T04:24:21;5.67;93.81
67603;DHT22;54417;47.454;18.918;2023-04-01T04:30:01;5.69;93.48
67603;DHT22;54417;47.454;18.918;2023-04-01T04:35:27;5.70;93.20
67603;DHT22;54417;47.454;18.918;2023-04-01T04:40:51;5.69;93.00
67603;DHT22;54417;47.454;18.918;2023-04-01T04:46:15;5.71;92.97
67603;DHT22;54417;47.454;18.918;2023-04-01T04:51:41;5.71;93.21
67603;DHT22;54417;47.454;18.918;2023-04-01T04:57:05;5.81;92.94
67603;DHT22;54417;47.454;18.918;2023-04-01T05:02:36;5.89;93.02
67603;DHT22;54417;47.454;18.918;2023-04-01T05:08:01;6.08;93.80
67603;DHT22;54417;47.454;18.918;2023-04-01T05:13:25;6.36;94.12
67603;DHT22;54417;47.454;18.918;2023-04-01T05:18:49;6.75;93.92
67603;DHT22;54417;47.454;18.918;2023-04-01T05:24:15;7.18;93.83
67603;DHT22;54417;47.454;18.918;2023-04-01T05:29:39;7.54;93.14
67603;DHT22;54417;47.454;18.918;2023-04-01T05:35:11;7.96;92.70
67603;DHT22;54417;47.454;18.918;2023-04-01T05:40:36;8.33;91.88
67603;DHT22;54417;47.454;18.918;2023-04-01T05:46:00;8.62;91.30
67603;DHT22;54417;47.454;18.918;2023-04-01T05:51:32;8.83;89.66
67603;DHT22;54417;47.454;18.918;2023-04-01T05:56:57;9.18;89.43
67603;DHT22;54417;47.454;18.918;2023-04-01T06:02:21;9.37;87.87
67603;DHT22;54417;47.454;18.918;2023-04-01T06:07:45;9.65;86.81
67603;DHT22;54417;47.454;18.918;2023-04-01T06:13:16;9.78;86.41
67603;DHT22;54417;47.454;18.918;2023-04-01T06:19:07;9.77;86.53
67603;DHT22;54417;47.454;18.918;2023-04-01T06:24:45;9.89;85.57
67603;DHT22;54417;47.454;18.918;2023-04-01T06:30:25;10.05;84.93
67603;DHT22;54417;47.454;18.918;2023-04-01T06:36:03;10.33;83.64
67603;DHT22;54417;47.454;18.918;2023-04-01T06:47:55;10.64;80.99
67603;DHT22;54417;47.454;18.918;2023-04-01T06:53:46;10.98;80.71
67603;DHT22;54417;47.454;18.918;2023-04-01T06:59:32;11.19;79.15
67603;DHT22;54417;47.454;18.918;2023-04-01T07:05:02;11.39;79.61
67603;DHT22;54417;47.454;18.918;2023-04-01T07:10:34;11.74;77.92
67603;DHT22;54417;47.454;18.918;2023-04-01T07:16:20;12.04;76.58
67603;DHT22;54417;47.454;18.918;2023-04-01T07:21:49;12.34;75.96
67603;DHT22;54417;47.454;18.918;2023-04-01T07:27:24;12.58;74.21
67603;DHT22;54417;47.454;18.918;2023-04-01T07:32:52;13.14;73.51
67603;DHT22;54417;47.454;18.918;2023-04-01T07:38:28;13.34;73.66
67603;DHT22;54417;47.454;18.918;2023-04-01T07:44:04;13.59;72.49
67603;DHT22;54417;47.454;18.918;2023-04-01T07:49:36;13.71;72.26
67603;DHT22;54417;47.454;18.918;2023-04-01T07:55:09;13.26;69.53
67603;DHT22;54417;47.454;18.918;2023-04-01T08:00:44;13.38;68.20
67603;DHT22;54417;47.454;18.918;2023-04-01T08:06:24;13.51;68.07
67603;DHT22;54417;47.454;18.918;2023-04-01T08:12:04;13.28;68.40
67603;DHT22;54417;47.454;18.918;2023-04-01T08:18:14;13.53;67.56
67603;DHT22;54417;47.454;18.918;2023-04-01T08:23:44;13.72;66.13
67603;DHT22;54417;47.454;18.918;2023-04-01T08:29:14;13.48;65.53
67603;DHT22;54417;47.454;18.918;2023-04-01T08:34:40;13.47;66.32
67603;DHT22;54417;47.454;18.918;2023-04-01T08:40:27;13.55;66.94
67603;DHT22;54417;47.454;18.918;2023-04-01T08:46:07;13.45;66.13
67603;DHT22;54417;47.454;18.918;2023-04-01T08:51:56;13.30;67.11
67603;DHT22;54417;47.454;18.918;2023-04-01T08:57:35;13.69;66.80
67603;DHT22;54417;47.454;18.918;2023-04-01T09:03:37;13.81;65.36
67603;DHT22;54417;47.454;18.918;2023-04-01T09:09:23;14.08;66.95
67603;DHT22;54417;47.454;18.918;2023-04-01T09:20:49;14.26;65.42
67603;DHT22;54417;47.454;18.918;2023-04-01T09:26:38;14.48;64.83
67603;DHT22;54417;47.454;18.918;2023-04-01T09:32:19;14.22;65.28
67603;DHT22;54417;47.454;18.918;2023-04-01T09:38:02;13.66;64.97
67603;DHT22;54417;47.454;18.918;2023-04-01T09:43:39;13.23;66.39
67603;DHT22;54417;47.454;18.918;2023-04-01T09:49:35;13.35;66.41
67603;DHT22;54417;47.454;18.918;2023-04-01T09:55:21;13.64;64.84
67603;DHT22;54417;47.454;18.918;2023-04-01T10:01:05;13.82;64.92
67603;DHT22;54417;47.454;18.918;2023-04-01T10:07:05;13.96;64.79
67603;DHT22;54417;47.454;18.918;2023-04-01T10:12:55;13.95;64.47
67603;DHT22;54417;47.454;18.918;2023-04-01T10:18:40;13.66;64.02
67603;DHT22;54417;47.454;18.918;2023-04-01T10:24:26;13.96;63.36
67603;DHT22;54417;47.454;18.918;2023-04-01T10:30:26;14.17;64.84
67603;DHT22;54417;47.454;18.918;2023-04-01T10:36:17;14.20;63.48
67603;DHT22;54417;47.454;18.918;2023-04-01T10:48:19;14.99;61.27
67603;DHT22;54417;47.454;18.918;2023-04-01T11:12:24;15.18;59.08
67603;DHT22;54417;47.454;18.918;2023-04-01T11:18:14;14.95;58.76
67603;DHT22;54417;47.454;18.918;2023-04-01T11:24:00;15.33;57.89
67603;DHT22;54417;47.454;18.918;2023-04-01T11:29:49;15.84;57.38
67603;DHT22;54417;47.454;18.918;2023-04-01T11:41:24;15.97;55.77
67603;DHT22;54417;47.454;18.918;2023-04-01T11:47:37;16.04;55.40
67603;DHT22;54417;47.454;18.918;2023-04-01T11:53:13;16.09;55.43
67603;DHT22;54417;47.454;18.918;2023-04-01T11:58:54;15.46;56.53
67603;DHT22;54417;47.454;18.918;2023-04-01T12:10:16;15.54;56.00
67603;DHT22;54417;47.454;18.918;2023-04-01T12:15:54;15.53;56.79
67603;DHT22;54417;47.454;18.918;2023-04-01T12:21:25;16.33;56.10
67603;DHT22;54417;47.454;18.918;2023-04-01T12:27:06;16.28;54.07
67603;DHT22;54417;47.454;18.918;2023-04-01T12:32:49;16.63;54.27
67603;DHT22;54417;47.454;18.918;2023-04-01T12:38:29;15.90;54.69
67603;DHT22;54417;47.454;18.918;2023-04-01T12:50:22;15.30;57.20
67603;DHT22;54417;47.454;18.918;2023-04-01T12:55:48;15.47;57.93
67603;DHT22;54417;47.454;18.918;2023-04-01T13:01:29;15.67;56.36
67603;DHT22;54417;47.454;18.918;2023-04-01T13:07:12;16.08;55.62
67603;DHT22;54417;47.454;18.918;2023-04-01T13:13:00;16.26;55.07
67603;DHT22;54417;47.454;18.918;2023-04-01T13:18:33;16.22;53.77
67603;DHT22;54417;47.454;18.918;2023-04-01T13:24:11;16.07;55.23
67603;DHT22;54417;47.454;18.918;2023-04-01T13:29:40;15.88;56.23
67603;DHT22;54417;47.454;18.918;2023-04-01T13:35:20;15.43;56.99
67603;DHT22;54417;47.454;18.918;2023-04-01T13:40:55;15.18;58.32
67603;DHT22;54417;47.454;18.918;2023-04-01T13:46:48;14.93;58.69
67603;DHT22;54417;47.454;18.918;2023-04-01T13:52:29;14.56;59.86
67603;DHT22;54417;47.454;18.918;2023-04-01T13:58:13;13.79;65.26
67603;DHT22;54417;47.454;18.918;2023-04-01T14:03:54;12.62;68.78
67603;DHT22;54417;47.454;18.918;2023-04-01T14:09:33;11.89;72.69
67603;DHT22;54417;47.454;18.918;2023-04-01T14:15:25;11.83;70.86
67603;DHT22;54417;47.454;18.918;2023-04-01T14:20:53;12.29;67.01
67603;DHT22;54417;47.454;18.918;2023-04-01T14:26:34;12.95;65.19
67603;DHT22;54417;47.454;18.918;2023-04-01T14:32:07;13.43;64.77
67603;DHT22;54417;47.454;18.918;2023-04-01T14:37:55;13.65;64.99
67603;DHT22;54417;47.454;18.918;2023-04-01T14:43:44;13.82;64.25
67603;DHT22;54417;47.454;18.918;2023-04-01T14:49:19;13.98;62.58
67603;DHT22;54417;47.454;18.918;2023-04-01T14:54:46;14.20;62.93
67603;DHT22;54417;47.454;18.918;2023-04-01T15:00:13;14.26;63.69
67603;DHT22;54417;47.454;18.918;2023-04-01T15:05:47;14.20;63.44
67603;DHT22;54417;47.454;18.918;2023-04-01T15:11:27;14.06;64.61
67603;DHT22;54417;47.454;18.918;2023-04-01T15:17:05;14.10;65.37
67603;DHT22;54417;47.454;18.918;2023-04-01T15:22:48;14.01;66.20
67603;DHT22;54417;47.454;18.918;2023-04-01T15:28:21;14.12;60.91
67603;DHT22;54417;47.454;18.918;2023-04-01T15:34:09;14.27;58.68
67603;DHT22;54417;47.454;18.918;2023-04-01T15:39:52;15.98;53.29
67603;DHT22;54417;47.454;18.918;2023-04-01T15:45:31;18.38;47.07
67603;DHT22;54417;47.454;18.918;2023-04-01T15:51:11;19.54;43.58
67603;DHT22;54417;47.454;18.918;2023-04-01T15:56:49;17.44;46.89
67603;DHT22;54417;47.454;18.918;2023-04-01T16:02:21;17.08;48.47
67603;DHT22;54417;47.454;18.918;2023-04-01T16:07:56;17.30;47.63
67603;DHT22;54417;47.454;18.918;2023-04-01T16:13:38;16.22;50.97
67603;DHT22;54417;47.454;18.918;2023-04-01T16:19:21;16.09;52.12
67603;DHT22;54417;47.454;18.918;2023-04-01T16:24:51;15.18;54.42
67603;DHT22;54417;47.454;18.918;2023-04-01T16:30:35;14.60;55.81
67603;DHT22;54417;47.454;18.918;2023-04-01T16:36:09;14.17;57.20
67603;DHT22;54417;47.454;18.918;2023-04-01T16:41:36;13.93;58.96
67603;DHT22;54417;47.454;18.918;2023-04-01T16:47:10;13.74;59.40
67603;DHT22;54417;47.454;18.918;2023-04-01T16:52:56;13.61;58.95
67603;DHT22;54417;47.454;18.918;2023-04-01T16:58:25;13.43;58.02
67603;DHT22;54417;47.454;18.918;2023-04-01T17:03:53;13.33;59.08
67603;DHT22;54417;47.454;18.918;2023-04-01T17:09:30;13.23;57.87
67603;DHT22;54417;47.454;18.918;2023-04-01T17:15:04;12.93;59.14
67603;DHT22;54417;47.454;18.918;2023-04-01T17:20:38;12.75;60.41
67603;DHT22;54417;47.454;18.918;2023-04-01T17:26:17;12.60;61.40
67603;DHT22;54417;47.454;18.918;2023-04-01T17:31:46;12.38;61.96
67603;DHT22;54417;47.454;18.918;2023-04-01T17:37:25;12.25;62.69
67603;DHT22;54417;47.454;18.918;2023-04-01T17:42:59;11.91;65.32
67603;DHT22;54417;47.454;18.918;2023-04-01T17:48:32;11.59;67.23
67603;DHT22;54417;47.454;18.918;2023-04-01T17:54:08;11.28;70.20
67603;DHT22;54417;47.454;18.918;2023-04-01T17:59:38;10.90;69.64
67603;DHT22;54417;47.454;18.918;2023-04-01T18:05:24;10.52;73.00
67603;DHT22;54417;47.454;18.918;2023-04-01T18:11:03;10.20;74.82
67603;DHT22;54417;47.454;18.918;2023-04-01T18:16:50;9.91;73.73
67603;DHT22;54417;47.454;18.918;2023-04-01T18:22:19;9.78;76.32
67603;DHT22;54417;47.454;18.918;2023-04-01T18:27:47;9.60;76.73
67603;DHT22;54417;47.454;18.918;2023-04-01T18:33:21;9.41;77.96
67603;DHT22;54417;47.454;18.918;2023-04-01T18:38:51;9.24;77.45
67603;DHT22;54417;47.454;18.918;2023-04-01T18:44:27;9.10;79.63
67603;DHT22;54417;47.454;18.918;2023-04-01T18:49:55;8.96;79.78
67603;DHT22;54417;47.454;18.918;2023-04-01T18:55:29;8.79;79.16
67603;DHT22;54417;47.454;18.918;2023-04-01T19:01:11;8.62;79.89
67603;DHT22;54417;47.454;18.918;2023-04-01T19:06:43;8.50;80.48
67603;DHT22;54417;47.454;18.918;2023-04-01T19:12:27;8.38;79.51
67603;DHT22;54417;47.454;18.918;2023-04-01T19:18:02;8.20;81.28
67603;DHT22;54417;47.454;18.918;2023-04-01T19:29:41;8.06;80.52
67603;DHT22;54417;47.454;18.918;2023-04-01T19:35:21;7.96;81.25
67603;DHT22;54417;47.454;18.918;2023-04-01T19:40:52;7.85;81.64
67603;DHT22;54417;47.454;18.918;2023-04-01T19:46:21;7.66;81.63
67603;DHT22;54417;47.454;18.918;2023-04-01T19:51:52;7.61;82.19
67603;DHT22;54417;47.454;18.918;2023-04-01T19:57:25;7.62;82.21
67603;DHT22;54417;47.454;18.918;2023-04-01T20:03:00;7.52;82.09
67603;DHT22;54417;47.454;18.918;2023-04-01T20:08:33;7.42;83.12
67603;DHT22;54417;47.454;18.918;2023-04-01T20:14:08;7.32;83.47
67603;DHT22;54417;47.454;18.918;2023-04-01T20:19:39;7.27;83.42
67603;DHT22;54417;47.454;18.918;2023-04-01T20:25:11;7.17;83.59
67603;DHT22;54417;47.454;18.918;2023-04-01T20:30:55;7.14;83.74
67603;DHT22;54417;47.454;18.918;2023-04-01T20:36:26;7.07;84.07
67603;DHT22;54417;47.454;18.918;2023-04-01T20:41:59;7.10;84.22
67603;DHT22;54417;47.454;18.918;2023-04-01T20:47:44;7.04;83.75
67603;DHT22;54417;47.454;18.918;2023-04-01T20:53:12;7.03;83.84
67603;DHT22;54417;47.454;18.918;2023-04-01T20:58:49;6.80;84.61
67603;DHT22;54417;47.454;18.918;2023-04-01T21:04:22;6.77;85.15
67603;DHT22;54417;47.454;18.918;2023-04-01T21:09:55;6.68;85.35
67603;DHT22;54417;47.454;18.918;2023-04-01T21:15:29;6.69;85.14
67603;DHT22;54417;47.454;18.918;2023-04-01T21:21:12;6.64;85.39
67603;DHT22;54417;47.454;18.918;2023-04-01T21:26:47;6.64;86.00
67603;DHT22;54417;47.454;18.918;2023-04-01T21:32:28;6.57;85.74
67603;DHT22;54417;47.454;18.918;2023-04-01T21:38:03;6.55;85.78
67603;DHT22;54417;47.454;18.918;2023-04-01T21:43:39;6.50;85.80
67603;DHT22;54417;47.454;18.918;2023-04-01T21:49:21;6.38;86.26
67603;DHT22;54417;47.454;18.918;2023-04-01T21:55:26;6.36;86.48
67603;DHT22;54417;47.454;18.918;2023-04-01T22:01:04;6.29;86.37
67603;DHT22;54417;47.454;18.918;2023-04-01T22:06:34;6.27;86.24
67603;DHT22;54417;47.454;18.918;2023-04-01T22:12:06;6.17;86.70
67603;DHT22;54417;47.454;18.918;2023-04-01T22:17:34;6.25;86.25
67603;DHT22;54417;47.454;18.918;2023-04-01T22:23:11;6.35;85.31
67603;DHT22;54417;47.454;18.918;2023-04-01T22:28:41;6.22;84.86
67603;DHT22;54417;47.454;18.918;2023-04-01T22:34:14;6.01;85.48
67603;DHT22;54417;47.454;18.918;2023-04-01T22:40:00;5.98;86.31
67603;DHT22;54417;47.454;18.918;2023-04-01T22:45:43;5.96;86.27
67603;DHT22;54417;47.454;18.918;2023-04-01T22:51:15;6.13;86.60
67603;DHT22;54417;47.454;18.918;2023-04-01T22:56:46;6.00;86.62
67603;DHT22;54417;47.454;18.918;2023-04-01T23:02:16;6.03;86.77
67603;DHT22;54417;47.454;18.918;2023-04-01T23:07:46;6.20;86.60
67603;DHT22;54417;47.454;18.918;2023-04-01T23:13:17;6.27;85.87
67603;DHT22;54417;47.454;18.918;2023-04-01T23:18:48;6.20;86.25
67603;DHT22;54417;47.454;18.918;2023-04-01T23:24:17;6.24;86.63
67603;DHT22;54417;47.454;18.918;2023-04-01T23:29:44;6.42;86.21
67603;DHT22;54417;47.454;18.918;2023-04-01T23:35:14;6.22;86.21
67603;DHT22;54417;47.454;18.918;2023-04-01T23:40:39;6.18;86.63
67603;DHT22;54417;47.454;18.918;2023-04-01T23:46:06;6.25;86.32
67603;DHT22;54417;47.454;18.918;2023-04-01T23:51:37;6.25;86.18
67603;DHT22;54417;47.454;18.918;2023-04-01T23:57:09;6.20;86.38
